Hauptseite
METAR-TAF:

METAR-TAF

Flughäfen :

Flughafen Lyon Saint-Exupéry

Lyon / Saint Exupéry, Frankreich

Breite: 45-44N, Länge: 005-05E, Höhe: 248 m

Beobachtung

Neuester Wetterbericht von vor 23 Minuten, um 13:30 UTC
Wind 6 kt aus Nord, variierte zwischen West/Nordwest und Nordost
Temperatur 30°C
Luftfeuchtigkeit 29%
Luftdruck 1017 hPa
Sichtweite 10 km oder mehr
keine Wolken unter 1500 m und keine Kumulonimbus oder Gewitterwolken

METAR: LFLL 061330Z 35006KT 290V040 CAVOK 30/10 Q1017 NOSIG

Zeit: 15:53 (13:53 UTC)

Prognose

Neuester Wetterbericht von vor 2 Stunden und 53 Minuten, um 11:00 UTC
Gültige Prognose vom 06 um 12 UTC bis 07 um 18 UTC
Wind 4 kt aus Nordwest
Sichtweite 10 km oder mehr
keine Wolken unter 1500 m und keine Kumulonimbus oder Gewitterwolken

TAF: LFLL 061100Z 0612/0718 32004KT CAVOK

Wetterbeobachtungen und Prognosen von mehr als 4000 Flughäfen (METAR und TAF Bericht).

Die verfügbaren Stationen werden durch gelbe und rote Markierungen auf der Karte dargestellt.

Führen Sie die Maus auf sie, um den Namen der Station zu sehen.

Darauf klicken, um die Beobachtung von Wetterbeobachtungen und Prognosen zu sehen.

Um die Karte zu ändern : klicken Sie auf den grünen Tasten mit einem schwarzen Kreuz Zum Vergrößern, auf den grünen Button mit einem Gedankenstrich zu verkleinern, oder auf die grünen Pfeile für benachbarte Karten.


METAR-TAF: